TAY8R EDDP-EDDH
Flight info
| Callsign | TAY8R |
|---|---|
| Flight time | 0h 34m |
| Altitude | 26000 |
| Route | PENEM1S PENEM Y233 ODLUN Z207 MAG M736 LODRO/N0433F280 M736 SOGMA M748 ERNUD M726 BKD L619 BUMIL/N0409F240 M748 RARUP RARUP6A |
| Aircraft | B738/M-SDE2E3FGHIRWXY/LB1 |
Departure
| Time | 2026-05-06 09:23 |
|---|---|
| Airport | Leipzig/Halle Airport (EDDP) |
Arrival
| Time | 2026-05-06 09:57 |
|---|---|
| Airport | Hamburg Helmut Schmidt Airport (EDDH) |
| Time | Latitude | Longitude | Altitude | Speed | Heading |
|---|---|---|---|---|---|
| 2026-05-06 08:47 | 51.40936 | 12.24341 | 465 ft | 0 kts | 85° |
| 2026-05-06 09:07 | 51.40934 | 12.24311 | 466 ft | 4 kts | 85° |
| 2026-05-06 09:08 | 51.40931 | 12.24275 | 465 ft | 4 kts | 70° |
| 2026-05-06 09:08 | 51.40917 | 12.24243 | 463 ft | 4 kts | 28° |
| 2026-05-06 09:08 | 51.40892 | 12.24233 | 462 ft | 4 kts | 359° |
| 2026-05-06 09:08 | 51.40867 | 12.24236 | 462 ft | 2 kts | 355° |
| 2026-05-06 09:09 | 51.40865 | 12.24236 | 461 ft | 1 kts | 356° |
| 2026-05-06 09:11 | 51.40882 | 12.24234 | 465 ft | 3 kts | 356° |
| 2026-05-06 09:12 | 51.40917 | 12.24230 | 462 ft | 6 kts | 356° |
| 2026-05-06 09:12 | 51.40958 | 12.24225 | 467 ft | 6 kts | 356° |
| 2026-05-06 09:12 | 51.40996 | 12.24221 | 468 ft | 6 kts | 356° |
| 2026-05-06 09:12 | 51.41034 | 12.24217 | 469 ft | 5 kts | 359° |
| 2026-05-06 09:13 | 51.41074 | 12.24256 | 467 ft | 8 kts | 66° |
| 2026-05-06 09:13 | 51.41084 | 12.24347 | 470 ft | 8 kts | 84° |
| 2026-05-06 09:13 | 51.41089 | 12.24447 | 470 ft | 10 kts | 85° |
| 2026-05-06 09:13 | 51.41101 | 12.24543 | 470 ft | 8 kts | 57° |
| 2026-05-06 09:14 | 51.41112 | 12.24560 | 468 ft | 4 kts | 38° |
| 2026-05-06 09:14 | 51.41141 | 12.24575 | 472 ft | 4 kts | 11° |
| 2026-05-06 09:14 | 51.41171 | 12.24585 | 473 ft | 4 kts | 11° |
| 2026-05-06 09:14 | 51.41200 | 12.24596 | 473 ft | 4 kts | 14° |
| 2026-05-06 09:15 | 51.41219 | 12.24604 | 474 ft | 0 kts | 14° |
| 2026-05-06 09:16 | 51.41236 | 12.24611 | 474 ft | 7 kts | 14° |
| 2026-05-06 09:16 | 51.41303 | 12.24637 | 475 ft | 11 kts | 11° |
| 2026-05-06 09:16 | 51.41354 | 12.24595 | 475 ft | 7 kts | 273° |
| 2026-05-06 09:17 | 51.41352 | 12.24537 | 474 ft | 5 kts | 265° |
| 2026-05-06 09:17 | 51.41351 | 12.24524 | 476 ft | 0 kts | 265° |
| 2026-05-06 09:22 | 51.41351 | 12.24509 | 475 ft | 5 kts | 265° |
| 2026-05-06 09:22 | 51.41331 | 12.24086 | 470 ft | 75 kts | 265° |
| 2026-05-06 09:22 | 51.41274 | 12.22881 | 463 ft | 141 kts | 266° |
| 2026-05-06 09:22 | 51.41180 | 12.21096 | 882 ft | 164 kts | 264° |
| 2026-05-06 09:23 | 51.41036 | 12.19252 | 1753 ft | 168 kts | 262° |
| 2026-05-06 09:23 | 51.40868 | 12.17382 | 2644 ft | 177 kts | 264° |
| 2026-05-06 09:23 | 51.40817 | 12.15267 | 3189 ft | 202 kts | 268° |
| 2026-05-06 09:23 | 51.40768 | 12.12921 | 3716 ft | 215 kts | 273° |
| 2026-05-06 09:24 | 51.41281 | 12.10616 | 4410 ft | 229 kts | 303° |
| 2026-05-06 09:24 | 51.42448 | 12.08940 | 5308 ft | 238 kts | 324° |
| 2026-05-06 09:24 | 51.44109 | 12.07980 | 5559 ft | 278 kts | 354° |
| 2026-05-06 09:24 | 51.46077 | 12.08031 | 6400 ft | 281 kts | 358° |
| 2026-05-06 09:25 | 51.48035 | 12.08145 | 6959 ft | 278 kts | 359° |
| 2026-05-06 09:25 | 51.49959 | 12.08404 | 7630 ft | 283 kts | 1° |
| 2026-05-06 09:25 | 51.51937 | 12.08525 | 8486 ft | 282 kts | 355° |
| 2026-05-06 09:25 | 51.53911 | 12.08462 | 9368 ft | 288 kts | 355° |
| 2026-05-06 09:26 | 51.55948 | 12.08423 | 10065 ft | 297 kts | 356° |
| 2026-05-06 09:26 | 51.58102 | 12.08420 | 10307 ft | 323 kts | 356° |
| 2026-05-06 09:26 | 51.60441 | 12.08456 | 10511 ft | 348 kts | 357° |
| 2026-05-06 09:26 | 51.62914 | 12.08526 | 10951 ft | 362 kts | 358° |
| 2026-05-06 09:27 | 51.65452 | 12.08611 | 11656 ft | 367 kts | 358° |
| 2026-05-06 09:27 | 51.68018 | 12.08686 | 12492 ft | 369 kts | 355° |
| 2026-05-06 09:27 | 51.70516 | 12.07903 | 13248 ft | 366 kts | 334° |
| 2026-05-06 09:27 | 51.72647 | 12.05809 | 13966 ft | 363 kts | 315° |
| 2026-05-06 09:28 | 51.74396 | 12.02877 | 14657 ft | 364 kts | 308° |
| 2026-05-06 09:28 | 51.76086 | 11.99792 | 15327 ft | 369 kts | 308° |
| 2026-05-06 09:28 | 51.77795 | 11.96661 | 15985 ft | 374 kts | 308° |
| 2026-05-06 09:28 | 51.79528 | 11.93535 | 16660 ft | 378 kts | 308° |
| 2026-05-06 09:29 | 51.81320 | 11.90340 | 17324 ft | 383 kts | 308° |
| 2026-05-06 09:29 | 51.83141 | 11.87202 | 17963 ft | 390 kts | 314° |
| 2026-05-06 09:29 | 51.85347 | 11.84535 | 18528 ft | 399 kts | 324° |
| 2026-05-06 09:29 | 51.87831 | 11.82416 | 19112 ft | 406 kts | 333° |
| 2026-05-06 09:30 | 51.90515 | 11.80951 | 19667 ft | 413 kts | 341° |
| 2026-05-06 09:30 | 51.93322 | 11.79745 | 20229 ft | 417 kts | 343° |
| 2026-05-06 09:30 | 51.96156 | 11.78606 | 20820 ft | 421 kts | 343° |
| 2026-05-06 09:30 | 51.99014 | 11.77470 | 21383 ft | 425 kts | 343° |
| 2026-05-06 09:31 | 52.01902 | 11.76308 | 21914 ft | 429 kts | 343° |
| 2026-05-06 09:31 | 52.04766 | 11.75134 | 22421 ft | 433 kts | 343° |
| 2026-05-06 09:31 | 52.07697 | 11.73914 | 22932 ft | 436 kts | 343° |
| 2026-05-06 09:31 | 52.10649 | 11.72672 | 23432 ft | 440 kts | 343° |
| 2026-05-06 09:32 | 52.13619 | 11.71414 | 23869 ft | 442 kts | 343° |
| 2026-05-06 09:32 | 52.16598 | 11.70148 | 24344 ft | 443 kts | 343° |
| 2026-05-06 09:32 | 52.19572 | 11.68880 | 24808 ft | 444 kts | 344° |
| 2026-05-06 09:32 | 52.22585 | 11.67594 | 25271 ft | 446 kts | 344° |
| 2026-05-06 09:33 | 52.25601 | 11.66305 | 25690 ft | 449 kts | 344° |
| 2026-05-06 09:33 | 52.28636 | 11.65006 | 25782 ft | 454 kts | 344° |
| 2026-05-06 09:33 | 52.30661 | 11.64139 | 25781 ft | 453 kts | 344° |
| 2026-05-06 09:33 | 52.33709 | 11.62832 | 25791 ft | 451 kts | 344° |
| 2026-05-06 09:34 | 52.36737 | 11.61532 | 25798 ft | 451 kts | 344° |
| 2026-05-06 09:34 | 52.39783 | 11.60222 | 25805 ft | 451 kts | 344° |
| 2026-05-06 09:34 | 52.42815 | 11.58916 | 25806 ft | 452 kts | 344° |
| 2026-05-06 09:34 | 52.45857 | 11.57604 | 25804 ft | 452 kts | 344° |
| 2026-05-06 09:35 | 52.48901 | 11.56289 | 25801 ft | 452 kts | 344° |
| 2026-05-06 09:35 | 52.51940 | 11.54975 | 25802 ft | 451 kts | 344° |
| 2026-05-06 09:35 | 52.54974 | 11.53660 | 25805 ft | 451 kts | 344° |
| 2026-05-06 09:35 | 52.58010 | 11.52344 | 25805 ft | 450 kts | 344° |
| 2026-05-06 09:36 | 52.61038 | 11.51028 | 25808 ft | 450 kts | 344° |
| 2026-05-06 09:36 | 52.64060 | 11.49713 | 25809 ft | 449 kts | 344° |
| 2026-05-06 09:36 | 52.67054 | 11.48409 | 25803 ft | 449 kts | 344° |
| 2026-05-06 09:36 | 52.70117 | 11.47073 | 25821 ft | 449 kts | 345° |
| 2026-05-06 09:37 | 52.73094 | 11.45772 | 25809 ft | 449 kts | 344° |
| 2026-05-06 09:37 | 52.76109 | 11.44453 | 25814 ft | 449 kts | 344° |
| 2026-05-06 09:37 | 52.79127 | 11.43131 | 25812 ft | 449 kts | 345° |
| 2026-05-06 09:37 | 52.82142 | 11.41807 | 25811 ft | 448 kts | 345° |
| 2026-05-06 09:38 | 52.85122 | 11.40498 | 25804 ft | 438 kts | 345° |
| 2026-05-06 09:38 | 52.88052 | 11.39209 | 25813 ft | 436 kts | 345° |
| 2026-05-06 09:38 | 52.90980 | 11.37919 | 25812 ft | 431 kts | 345° |
| 2026-05-06 09:38 | 52.93884 | 11.36637 | 25819 ft | 433 kts | 345° |
| 2026-05-06 09:39 | 52.96798 | 11.35349 | 25834 ft | 433 kts | 345° |
| 2026-05-06 09:39 | 52.99708 | 11.34061 | 25321 ft | 434 kts | 344° |
| 2026-05-06 09:39 | 53.02634 | 11.32764 | 24687 ft | 433 kts | 344° |
| 2026-05-06 09:39 | 53.05537 | 11.31477 | 24080 ft | 431 kts | 344° |
| 2026-05-06 09:40 | 53.08424 | 11.30195 | 23484 ft | 429 kts | 344° |
| 2026-05-06 09:40 | 53.11243 | 11.28729 | 22776 ft | 426 kts | 337° |
| 2026-05-06 09:40 | 53.16233 | 11.23647 | 21387 ft | 417 kts | 313° |
| 2026-05-06 09:41 | 53.17971 | 11.19824 | 20736 ft | 411 kts | 297° |
| 2026-05-06 09:41 | 53.19071 | 11.15474 | 20090 ft | 406 kts | 283° |
| 2026-05-06 09:41 | 53.19695 | 11.10895 | 19488 ft | 401 kts | 280° |
| 2026-05-06 09:41 | 53.20257 | 11.06377 | 18885 ft | 399 kts | 280° |
| 2026-05-06 09:42 | 53.20811 | 11.01858 | 18294 ft | 396 kts | 279° |
| 2026-05-06 09:42 | 53.21369 | 10.97345 | 17640 ft | 393 kts | 280° |
| 2026-05-06 09:42 | 53.21922 | 10.92949 | 16985 ft | 391 kts | 280° |
| 2026-05-06 09:42 | 53.22483 | 10.88524 | 16337 ft | 389 kts | 280° |
| 2026-05-06 09:43 | 53.23046 | 10.84122 | 15706 ft | 386 kts | 281° |
| 2026-05-06 09:43 | 53.23606 | 10.79755 | 15079 ft | 384 kts | 281° |
| 2026-05-06 09:43 | 53.24165 | 10.75397 | 14545 ft | 380 kts | 281° |
| 2026-05-06 09:43 | 53.24712 | 10.71115 | 14044 ft | 375 kts | 281° |
| 2026-05-06 09:44 | 53.25253 | 10.66872 | 13579 ft | 371 kts | 281° |
| 2026-05-06 09:44 | 53.25784 | 10.62695 | 13111 ft | 365 kts | 281° |
| 2026-05-06 09:44 | 53.26306 | 10.58582 | 12658 ft | 360 kts | 281° |
| 2026-05-06 09:44 | 53.26819 | 10.54517 | 12207 ft | 356 kts | 281° |
| 2026-05-06 09:45 | 53.27322 | 10.50524 | 11778 ft | 352 kts | 281° |
| 2026-05-06 09:45 | 53.27826 | 10.46508 | 11356 ft | 350 kts | 281° |
| 2026-05-06 09:45 | 53.28322 | 10.42548 | 10926 ft | 347 kts | 282° |
| 2026-05-06 09:45 | 53.28815 | 10.38600 | 10511 ft | 345 kts | 282° |
| 2026-05-06 09:46 | 53.29302 | 10.34691 | 10089 ft | 342 kts | 282° |
| 2026-05-06 09:46 | 53.29786 | 10.30809 | 9672 ft | 340 kts | 282° |
| 2026-05-06 09:46 | 53.30262 | 10.27008 | 9216 ft | 332 kts | 282° |
| 2026-05-06 09:46 | 53.30733 | 10.23251 | 8798 ft | 324 kts | 282° |
| 2026-05-06 09:47 | 53.31190 | 10.19599 | 8419 ft | 317 kts | 282° |
| 2026-05-06 09:47 | 53.31629 | 10.16073 | 8040 ft | 312 kts | 282° |
| 2026-05-06 09:47 | 53.32071 | 10.12513 | 7661 ft | 309 kts | 282° |
| 2026-05-06 09:47 | 53.32508 | 10.08971 | 7326 ft | 308 kts | 282° |
| 2026-05-06 09:48 | 53.32936 | 10.05515 | 7056 ft | 305 kts | 282° |
| 2026-05-06 09:48 | 53.33361 | 10.02067 | 6760 ft | 302 kts | 282° |
| 2026-05-06 09:48 | 53.33779 | 9.98657 | 6439 ft | 296 kts | 282° |
| 2026-05-06 09:48 | 53.34184 | 9.95325 | 6118 ft | 289 kts | 282° |
| 2026-05-06 09:49 | 53.34576 | 9.92062 | 5821 ft | 281 kts | 282° |
| 2026-05-06 09:49 | 53.34951 | 9.88924 | 5532 ft | 274 kts | 282° |
| 2026-05-06 09:49 | 53.35478 | 9.85899 | 5220 ft | 266 kts | 301° |
| 2026-05-06 09:49 | 53.36685 | 9.83669 | 4973 ft | 257 kts | 328° |
| 2026-05-06 09:50 | 53.38193 | 9.82120 | 4742 ft | 254 kts | 333° |
| 2026-05-06 09:50 | 53.39720 | 9.80655 | 4485 ft | 250 kts | 334° |
| 2026-05-06 09:50 | 53.41193 | 9.79244 | 4266 ft | 240 kts | 334° |
| 2026-05-06 09:50 | 53.42615 | 9.77868 | 4055 ft | 229 kts | 334° |
| 2026-05-06 09:51 | 53.43958 | 9.76542 | 3916 ft | 220 kts | 334° |
| 2026-05-06 09:51 | 53.45251 | 9.75236 | 3775 ft | 213 kts | 334° |
| 2026-05-06 09:51 | 53.46516 | 9.73935 | 3695 ft | 216 kts | 334° |
| 2026-05-06 09:51 | 53.47842 | 9.72696 | 3555 ft | 216 kts | 348° |
| 2026-05-06 09:52 | 53.49271 | 9.72620 | 3409 ft | 201 kts | 23° |
| 2026-05-06 09:52 | 53.50339 | 9.73849 | 3317 ft | 181 kts | 51° |
| 2026-05-06 09:52 | 53.51102 | 9.75401 | 3250 ft | 165 kts | 53° |
| 2026-05-06 09:52 | 53.51796 | 9.76869 | 3143 ft | 158 kts | 53° |
| 2026-05-06 09:53 | 53.52471 | 9.78312 | 3065 ft | 154 kts | 54° |
| 2026-05-06 09:53 | 53.53116 | 9.79693 | 3034 ft | 149 kts | 54° |
| 2026-05-06 09:53 | 53.53771 | 9.81076 | 3011 ft | 153 kts | 49° |
| 2026-05-06 09:53 | 53.54647 | 9.82242 | 2692 ft | 167 kts | 40° |
| 2026-05-06 09:54 | 53.55527 | 9.83513 | 2431 ft | 165 kts | 48° |
| 2026-05-06 09:54 | 53.56265 | 9.84909 | 2233 ft | 154 kts | 53° |
| 2026-05-06 09:54 | 53.56871 | 9.86311 | 2034 ft | 141 kts | 53° |
| 2026-05-06 09:54 | 53.57462 | 9.87525 | 1885 ft | 132 kts | 50° |
| 2026-05-06 09:55 | 53.58062 | 9.88724 | 1630 ft | 136 kts | 52° |
| 2026-05-06 09:55 | 53.58662 | 9.89984 | 1287 ft | 143 kts | 50° |
| 2026-05-06 09:55 | 53.59291 | 9.91222 | 1050 ft | 135 kts | 52° |
| 2026-05-06 09:55 | 53.59886 | 9.92461 | 804 ft | 133 kts | 49° |
| 2026-05-06 09:56 | 53.60478 | 9.93655 | 578 ft | 132 kts | 50° |
| 2026-05-06 09:56 | 53.61067 | 9.94841 | 372 ft | 133 kts | 49° |
| 2026-05-06 09:56 | 53.61666 | 9.96047 | 157 ft | 140 kts | 48° |
| 2026-05-06 09:56 | 53.62273 | 9.97278 | 43 ft | 129 kts | 51° |
| 2026-05-06 09:57 | 53.62776 | 9.98301 | 42 ft | 93 kts | 49° |
| 2026-05-06 09:57 | 53.63055 | 9.98869 | 45 ft | 41 kts | 61° |
| 2026-05-06 09:57 | 53.63091 | 9.99151 | 45 ft | 12 kts | 94° |
| 2026-05-06 09:57 | 53.63082 | 9.99240 | 45 ft | 6 kts | 112° |
| 2026-05-06 09:58 | 53.63048 | 9.99261 | 46 ft | 6 kts | 203° |
| 2026-05-06 09:58 | 53.63018 | 9.99216 | 46 ft | 6 kts | 228° |
| 2026-05-06 09:58 | 53.62993 | 9.99162 | 46 ft | 6 kts | 233° |
| 2026-05-06 09:58 | 53.62968 | 9.99111 | 46 ft | 6 kts | 229° |
| 2026-05-06 09:59 | 53.62943 | 9.99061 | 46 ft | 6 kts | 229° |
| 2026-05-06 09:59 | 53.62918 | 9.99013 | 46 ft | 6 kts | 229° |
| 2026-05-06 09:59 | 53.62893 | 9.98963 | 46 ft | 5 kts | 230° |
| 2026-05-06 09:59 | 53.62862 | 9.98929 | 46 ft | 5 kts | 199° |
| 2026-05-06 10:00 | 53.62826 | 9.98933 | 46 ft | 5 kts | 161° |
| 2026-05-06 10:00 | 53.62794 | 9.98961 | 46 ft | 5 kts | 151° |
| 2026-05-06 10:00 | 53.62764 | 9.98990 | 44 ft | 5 kts | 155° |
| 2026-05-06 10:00 | 53.62735 | 9.99016 | 46 ft | 4 kts | 134° |
| 2026-05-06 10:01 | 53.62733 | 9.99058 | 46 ft | 4 kts | 71° |
| 2026-05-06 10:01 | 53.62746 | 9.99095 | 44 ft | 4 kts | 60° |
| 2026-05-06 10:01 | 53.62757 | 9.99131 | 46 ft | 3 kts | 63° |
| 2026-05-06 10:01 | 53.62767 | 9.99165 | 46 ft | 3 kts | 63° |
| 2026-05-06 10:02 | 53.62770 | 9.99173 | 43 ft | 0 kts | 63° |